createdAt,value
2017-09-13T00:00:23.922Z,1.60
2017-09-13T00:02:52.328Z,1.57
2017-09-13T00:05:20.655Z,1.43
2017-09-13T00:07:48.943Z,1.50
2017-09-13T00:10:17.246Z,1.97
2017-09-13T00:12:45.559Z,1.70
2017-09-13T00:15:13.858Z,1.23
2017-09-13T00:17:42.167Z,1.67
2017-09-13T00:20:10.448Z,2.00
2017-09-13T00:22:51.116Z,1.57
2017-09-13T00:25:20.183Z,1.63
2017-09-13T00:27:48.460Z,1.90
2017-09-13T00:30:17.683Z,1.23
2017-09-13T00:32:45.979Z,2.50
2017-09-13T00:35:14.278Z,1.73
2017-09-13T00:37:43.347Z,1.40
2017-09-13T00:40:12.417Z,2.97
2017-09-13T00:42:40.710Z,1.70
2017-09-13T00:45:09.027Z,2.23
2017-09-13T00:47:37.299Z,1.50
2017-09-13T00:50:05.575Z,1.80
2017-09-13T00:52:33.899Z,1.87
2017-09-13T00:55:02.246Z,1.47
2017-09-13T00:57:30.548Z,1.60
2017-09-13T00:59:58.940Z,1.30
2017-09-13T01:02:28.051Z,1.50
2017-09-13T01:04:56.340Z,1.40
2017-09-13T01:07:24.952Z,1.30
2017-09-13T01:09:54.751Z,1.70
2017-09-13T01:12:47.515Z,1.90
2017-09-13T01:15:15.847Z,1.87
2017-09-13T01:17:44.906Z,1.80
2017-09-13T01:20:13.226Z,1.60
2017-09-13T01:22:41.512Z,1.97
2017-09-13T01:25:09.817Z,1.70
2017-09-13T01:27:38.142Z,1.57
2017-09-13T01:30:06.476Z,3.63
2017-09-13T01:32:34.799Z,2.03
2017-09-13T01:35:03.864Z,2.07
2017-09-13T01:37:34.894Z,1.77
2017-09-13T01:40:03.183Z,1.60
2017-09-13T01:42:31.467Z,2.47
2017-09-13T01:44:59.778Z,1.80
2017-09-13T01:47:28.088Z,1.60
2017-09-13T01:50:17.766Z,1.97
2017-09-13T01:52:46.823Z,1.70
2017-09-13T01:55:15.186Z,1.70
2017-09-13T01:57:43.507Z,1.50
2017-09-13T02:00:11.792Z,1.80
2017-09-13T02:02:40.871Z,1.60
2017-09-13T02:05:09.205Z,1.30
2017-09-13T02:07:37.483Z,1.90
2017-09-13T02:10:05.807Z,1.40
2017-09-13T02:12:34.091Z,1.97
2017-09-13T02:15:02.376Z,2.37
2017-09-13T02:17:30.749Z,1.97
2017-09-13T02:19:59.058Z,1.43
2017-09-13T02:22:27.398Z,1.97
2017-09-13T02:24:56.478Z,1.43
2017-09-13T02:27:25.436Z,1.70
2017-09-13T02:29:53.728Z,1.50
2017-09-13T02:32:23.142Z,1.60
2017-09-13T02:34:51.434Z,1.53
2017-09-13T02:37:27.588Z,1.30
2017-09-13T02:39:55.879Z,1.97
2017-09-13T02:42:25.020Z,1.97
2017-09-13T02:44:53.543Z,1.70
2017-09-13T02:47:29.087Z,1.53
2017-09-13T02:49:57.406Z,1.77
2017-09-13T02:52:26.467Z,1.63
2017-09-13T02:54:55.395Z,1.63
2017-09-13T02:57:23.739Z,1.60
2017-09-13T03:00:13.763Z,1.43
2017-09-13T03:02:42.099Z,2.00
2017-09-13T03:05:10.424Z,2.13
2017-09-13T03:07:38.694Z,1.30
2017-09-13T03:10:07.012Z,1.73
2017-09-13T03:12:35.360Z,1.10
2017-09-13T03:15:03.648Z,1.20
2017-09-13T03:17:31.951Z,2.00
2017-09-13T03:20:00.235Z,1.47
2017-09-13T03:22:28.563Z,1.47
2017-09-13T03:24:56.900Z,1.30
2017-09-13T03:27:25.244Z,2.30
2017-09-13T03:29:53.584Z,1.30
2017-09-13T03:32:23.225Z,1.03
2017-09-13T03:34:51.522Z,1.20
2017-09-13T03:37:19.912Z,1.50
2017-09-13T03:39:48.232Z,1.20
2017-09-13T03:42:16.544Z,1.37
2017-09-13T03:44:44.828Z,1.70
2017-09-13T03:47:13.135Z,1.30
2017-09-13T03:49:41.427Z,1.50
2017-09-13T03:52:09.739Z,1.43
2017-09-13T03:54:38.063Z,1.40
2017-09-13T03:57:06.375Z,1.30
2017-09-13T03:59:34.693Z,1.00
2017-09-13T04:02:02.988Z,1.57
2017-09-13T04:04:31.268Z,1.50
2017-09-13T04:06:59.696Z,1.10
2017-09-13T04:09:28.167Z,1.27
2017-09-13T04:11:56.500Z,1.20
2017-09-13T04:14:25.537Z,0.87
2017-09-13T04:16:54.031Z,2.00
2017-09-13T04:19:23.687Z,1.30
2017-09-13T04:21:51.976Z,1.87
2017-09-13T04:24:23.747Z,1.00
2017-09-13T04:26:53.129Z,1.00
2017-09-13T04:29:21.418Z,1.37
2017-09-13T04:31:49.726Z,1.30
2017-09-13T04:34:18.807Z,1.23
2017-09-13T04:36:47.142Z,1.47
2017-09-13T04:39:15.496Z,1.93
2017-09-13T04:41:43.792Z,1.27
2017-09-13T04:44:12.074Z,1.30
2017-09-13T04:46:41.153Z,1.30
2017-09-13T04:49:10.234Z,1.73
2017-09-13T04:51:38.579Z,1.27
2017-09-13T04:54:06.858Z,1.70
2017-09-13T04:56:35.909Z,1.60
2017-09-13T04:59:04.227Z,2.07
2017-09-13T05:01:32.524Z,1.30
2017-09-13T05:04:01.459Z,2.03
2017-09-13T05:06:30.530Z,1.37
2017-09-13T05:08:59.598Z,2.03
2017-09-13T05:11:27.937Z,1.97
2017-09-13T05:13:56.532Z,2.00
2017-09-13T05:16:25.817Z,1.80
2017-09-13T05:18:54.153Z,1.60
2017-09-13T05:21:22.580Z,1.73
2017-09-13T05:23:50.966Z,3.47
2017-09-13T05:26:19.953Z,1.53
2017-09-13T05:28:48.246Z,1.63
2017-09-13T05:31:16.616Z,1.90
2017-09-13T05:33:44.986Z,2.17
2017-09-13T05:36:13.287Z,1.67
2017-09-13T05:38:41.657Z,1.80
2017-09-13T05:41:10.737Z,1.27
2017-09-13T05:43:39.041Z,1.70
2017-09-13T05:46:07.373Z,2.80
2017-09-13T05:48:35.698Z,1.83
2017-09-13T05:51:03.991Z,1.80
2017-09-13T05:53:34.061Z,1.90
2017-09-13T05:56:03.322Z,1.90
2017-09-13T05:58:32.625Z,1.67
2017-09-13T06:01:01.704Z,1.40
2017-09-13T06:03:31.222Z,1.80
2017-09-13T06:05:59.557Z,2.00
2017-09-13T06:08:27.901Z,1.90
2017-09-13T06:10:56.230Z,1.73
2017-09-13T06:13:24.684Z,1.87
2017-09-13T06:15:52.978Z,1.47
2017-09-13T06:18:22.093Z,1.50
2017-09-13T06:20:50.461Z,1.90
2017-09-13T06:23:18.755Z,1.90
2017-09-13T06:25:47.057Z,2.30
2017-09-13T06:28:15.376Z,1.50
2017-09-13T06:30:43.665Z,1.57
2017-09-13T06:33:12.061Z,1.43
2017-09-13T06:35:40.500Z,1.80
2017-09-13T06:38:08.797Z,1.40
2017-09-13T06:40:37.192Z,1.90
2017-09-13T06:43:05.515Z,1.80
2017-09-13T06:45:33.814Z,2.13
2017-09-13T06:48:02.141Z,1.40
2017-09-13T06:50:31.254Z,1.83
2017-09-13T06:52:59.549Z,1.83
2017-09-13T06:55:28.039Z,2.70
2017-09-13T06:57:56.332Z,1.60
2017-09-13T07:00:24.647Z,2.10
2017-09-13T07:02:52.965Z,2.53
2017-09-13T07:05:21.277Z,1.90
2017-09-13T07:07:49.593Z,2.20
2017-09-13T07:10:17.917Z,1.80
2017-09-13T07:12:46.230Z,2.20
2017-09-13T07:15:14.574Z,2.60
2017-09-13T07:17:42.901Z,2.33
2017-09-13T07:20:11.201Z,2.10
2017-09-13T07:22:39.520Z,1.50
2017-09-13T07:25:07.838Z,1.50
2017-09-13T07:27:36.573Z,1.90
2017-09-13T07:30:04.867Z,3.10
2017-09-13T07:32:34.769Z,2.07
2017-09-13T07:35:03.093Z,2.17
2017-09-13T07:37:31.388Z,1.80
2017-09-13T07:39:59.759Z,1.50
2017-09-13T07:42:28.858Z,1.63
2017-09-13T07:44:57.153Z,2.17
2017-09-13T07:47:25.464Z,1.50
2017-09-13T07:49:53.808Z,1.97
2017-09-13T07:52:22.112Z,2.47
2017-09-13T07:54:50.419Z,2.70
2017-09-13T07:57:18.756Z,1.87
2017-09-13T07:59:47.050Z,2.20
2017-09-13T08:02:15.395Z,2.20
2017-09-13T08:04:43.694Z,2.60
2017-09-13T08:07:12.758Z,1.93
2017-09-13T08:09:41.090Z,2.30
2017-09-13T08:12:09.417Z,2.90
2017-09-13T08:14:37.810Z,2.33
2017-09-13T08:17:06.245Z,1.60
2017-09-13T08:19:34.570Z,2.20
2017-09-13T08:22:03.666Z,2.23
2017-09-13T08:24:32.874Z,2.23
2017-09-13T08:27:02.928Z,1.80
2017-09-13T08:29:31.341Z,2.50
2017-09-13T08:32:00.394Z,2.57
2017-09-13T08:34:29.485Z,2.90
2017-09-13T08:36:57.786Z,2.90
2017-09-13T08:39:26.117Z,2.47
2017-09-13T08:41:54.462Z,2.57
2017-09-13T08:44:22.761Z,2.70
2017-09-13T08:46:51.190Z,2.17
2017-09-13T08:49:20.282Z,1.70
2017-09-13T08:51:49.387Z,2.53
2017-09-13T08:54:17.710Z,2.43
2017-09-13T08:56:46.813Z,2.23
2017-09-13T08:59:15.174Z,2.20
2017-09-13T09:01:43.530Z,3.63
2017-09-13T09:04:11.859Z,2.23
2017-09-13T09:06:40.917Z,2.20
2017-09-13T09:09:09.239Z,2.40
2017-09-13T09:11:37.539Z,2.03
2017-09-13T09:14:06.629Z,2.00
2017-09-13T09:16:34.953Z,1.60
2017-09-13T09:19:04.036Z,1.47
2017-09-13T09:21:34.023Z,1.83
2017-09-13T09:24:03.213Z,2.20
2017-09-13T09:26:32.477Z,1.63
2017-09-13T09:29:00.774Z,1.60
2017-09-13T09:31:29.243Z,1.50
2017-09-13T09:33:57.584Z,1.20
2017-09-13T09:36:25.944Z,1.00
2017-09-13T09:38:54.236Z,1.20
2017-09-13T09:41:22.630Z,1.70
2017-09-13T09:43:50.966Z,0.90
2017-09-13T09:46:20.026Z,1.47
2017-09-13T09:48:49.132Z,1.80
2017-09-13T09:51:17.437Z,1.30
2017-09-13T09:53:45.774Z,0.90
2017-09-13T09:56:14.109Z,1.10
2017-09-13T09:58:42.476Z,1.37
2017-09-13T10:01:10.769Z,0.97
2017-09-13T10:03:39.871Z,1.20
2017-09-13T10:06:08.194Z,1.37
2017-09-13T10:08:36.484Z,0.73
2017-09-13T10:11:04.902Z,1.00
2017-09-13T10:13:33.962Z,0.90
2017-09-13T10:16:02.423Z,0.90
2017-09-13T10:18:31.522Z,0.63
2017-09-13T10:21:00.585Z,1.20
2017-09-13T10:23:28.912Z,0.80
2017-09-13T10:25:57.245Z,0.53
2017-09-13T10:28:25.589Z,0.80
2017-09-13T10:30:53.886Z,0.83
2017-09-13T10:33:22.218Z,0.70
2017-09-13T10:35:50.613Z,0.60
2017-09-13T10:38:18.901Z,0.60
2017-09-13T10:40:47.197Z,0.63
2017-09-13T10:43:15.538Z,0.53
2017-09-13T10:45:43.837Z,0.50
2017-09-13T10:48:12.929Z,0.60
2017-09-13T10:50:41.294Z,0.60
2017-09-13T10:53:09.585Z,0.60
2017-09-13T10:55:37.908Z,0.67
2017-09-13T10:58:06.799Z,0.80
2017-09-13T11:00:35.947Z,0.73
2017-09-13T11:03:05.441Z,0.80
2017-09-13T11:05:33.760Z,1.20
2017-09-13T11:08:02.093Z,0.50
2017-09-13T11:10:31.155Z,0.90
2017-09-13T11:12:59.450Z,0.70
2017-09-13T11:15:27.780Z,1.23
2017-09-13T11:17:56.068Z,0.90
2017-09-13T11:20:25.156Z,1.03
2017-09-13T11:22:53.501Z,0.90
2017-09-13T11:25:21.877Z,0.87
2017-09-13T11:27:50.223Z,0.60
2017-09-13T11:30:18.525Z,0.53
2017-09-13T11:32:46.856Z,0.50
2017-09-13T11:35:16.087Z,1.00
2017-09-13T11:37:44.471Z,0.70
2017-09-13T11:40:12.744Z,0.43
2017-09-13T11:42:41.067Z,0.43
2017-09-13T11:45:09.356Z,0.60
2017-09-13T11:47:37.688Z,0.50
2017-09-13T11:50:06.015Z,0.47
2017-09-13T11:52:34.339Z,0.67
2017-09-13T11:55:02.667Z,0.63
2017-09-13T11:57:30.975Z,0.50
2017-09-13T11:59:59.255Z,1.03
2017-09-13T12:02:27.563Z,0.47
2017-09-13T12:04:55.927Z,0.80
2017-09-13T12:07:25.019Z,0.87
2017-09-13T12:09:53.347Z,0.77
2017-09-13T12:12:22.410Z,0.60
2017-09-13T12:14:50.723Z,1.17
2017-09-13T12:17:19.036Z,1.10
2017-09-13T12:19:47.416Z,0.80
2017-09-13T12:22:15.745Z,1.30
2017-09-13T12:24:44.046Z,0.80
2017-09-13T12:27:12.375Z,0.97
2017-09-13T12:29:40.674Z,1.00
2017-09-13T12:32:08.991Z,1.10
2017-09-13T12:34:38.073Z,0.70
2017-09-13T12:37:06.549Z,1.40
2017-09-13T12:39:34.935Z,1.27
2017-09-13T12:44:42.067Z,1.57
2017-09-13T12:47:10.367Z,1.60
2017-09-13T12:49:38.663Z,1.40
2017-09-13T12:52:07.016Z,1.30
2017-09-13T12:54:35.310Z,1.70
2017-09-13T12:57:03.627Z,1.50
2017-09-13T12:59:32.719Z,1.70
2017-09-13T13:02:01.037Z,2.20
2017-09-13T13:04:29.352Z,1.30
2017-09-13T13:06:57.647Z,1.27
2017-09-13T13:09:25.978Z,1.20
2017-09-13T13:11:54.317Z,1.40
2017-09-13T13:14:23.408Z,1.40
2017-09-13T13:16:51.709Z,1.00
2017-09-13T13:19:20.012Z,0.80
2017-09-13T13:21:48.354Z,0.97
2017-09-13T13:24:17.403Z,2.10
2017-09-13T13:26:45.720Z,1.67
2017-09-13T13:29:14.075Z,1.60
2017-09-13T13:31:42.379Z,1.10
2017-09-13T13:34:10.668Z,1.60
2017-09-13T13:36:38.980Z,1.27
2017-09-13T13:39:08.384Z,1.47
2017-09-13T13:41:37.509Z,1.20
2017-09-13T13:44:05.842Z,0.80
2017-09-13T13:46:35.073Z,1.27
2017-09-13T13:49:08.895Z,1.23
2017-09-13T13:51:37.328Z,1.40
2017-09-13T13:54:05.692Z,1.53
2017-09-13T13:56:34.943Z,1.50
2017-09-13T13:59:04.339Z,1.20
2017-09-13T14:01:34.616Z,1.13
2017-09-13T14:04:02.911Z,1.60
2017-09-13T14:06:31.228Z,1.23
2017-09-13T14:08:59.551Z,1.30
2017-09-13T14:11:27.848Z,1.30
2017-09-13T14:13:56.292Z,0.90
2017-09-13T14:16:24.680Z,1.30
2017-09-13T14:18:53.725Z,1.20
2017-09-13T14:21:22.031Z,1.57
2017-09-13T14:23:51.116Z,2.57
2017-09-13T14:26:19.407Z,1.40
2017-09-13T14:28:47.707Z,1.50
2017-09-13T14:31:16.798Z,2.30
2017-09-13T14:33:45.106Z,2.00
2017-09-13T14:36:13.469Z,1.53
2017-09-13T14:38:41.893Z,2.00
2017-09-13T14:41:10.196Z,1.00
2017-09-13T14:43:38.486Z,1.33
2017-09-13T14:46:06.814Z,1.77
2017-09-13T14:48:35.859Z,1.23
2017-09-13T14:51:04.894Z,2.10
2017-09-13T14:53:33.859Z,1.50
2017-09-13T14:56:03.490Z,1.47
2017-09-13T14:58:31.836Z,1.30
2017-09-13T15:01:00.144Z,1.50
2017-09-13T15:03:28.481Z,1.27
2017-09-13T15:05:56.759Z,1.20
2017-09-13T15:08:25.051Z,1.47
2017-09-13T15:10:54.212Z,1.30
2017-09-13T15:13:22.495Z,1.47
2017-09-13T15:15:50.966Z,1.73
2017-09-13T15:18:19.278Z,1.80
2017-09-13T15:20:47.668Z,2.23
2017-09-13T15:23:15.978Z,1.60
2017-09-13T15:25:44.306Z,1.60
2017-09-13T15:28:12.632Z,1.47
2017-09-13T15:30:40.949Z,1.53
2017-09-13T15:33:10.042Z,2.00
2017-09-13T15:35:39.120Z,1.13
2017-09-13T15:38:07.453Z,1.60
2017-09-13T15:40:36.544Z,1.27
2017-09-13T15:43:05.740Z,1.43
2017-09-13T15:45:35.119Z,1.30
2017-09-13T15:48:03.446Z,1.53
2017-09-13T15:50:31.725Z,0.80
2017-09-13T15:53:00.061Z,1.10
2017-09-13T15:55:28.348Z,1.20
2017-09-13T15:57:56.650Z,1.67
2017-09-13T16:00:24.966Z,1.50
2017-09-13T16:02:53.246Z,1.40
2017-09-13T16:05:21.579Z,1.10
2017-09-13T16:07:49.858Z,1.50
2017-09-13T16:10:18.144Z,1.10
2017-09-13T16:12:46.481Z,1.67
2017-09-13T16:15:14.793Z,1.30
2017-09-13T16:17:43.141Z,1.17
2017-09-13T16:20:11.430Z,1.30
2017-09-13T16:22:39.755Z,1.37
2017-09-13T16:25:08.051Z,1.63
2017-09-13T16:27:37.186Z,1.27
2017-09-13T16:30:05.495Z,1.90
2017-09-13T16:32:33.801Z,1.60
2017-09-13T16:35:02.125Z,1.37
2017-09-13T16:37:30.408Z,1.23
2017-09-13T16:39:58.716Z,1.27
2017-09-13T16:42:27.043Z,1.50
2017-09-13T16:44:55.324Z,1.63
2017-09-13T16:47:23.651Z,1.13
2017-09-13T16:49:52.017Z,1.50
2017-09-13T16:52:20.308Z,1.20
2017-09-13T16:54:49.358Z,1.10
2017-09-13T16:57:18.846Z,1.23
2017-09-13T16:59:48.347Z,1.27
2017-09-13T17:02:16.734Z,1.30
2017-09-13T17:04:45.046Z,1.50
2017-09-13T17:07:13.367Z,1.23
2017-09-13T17:09:41.657Z,1.10
2017-09-13T17:12:09.953Z,1.00
2017-09-13T17:14:39.019Z,1.20
2017-09-13T17:17:21.363Z,1.47
2017-09-13T17:19:49.681Z,0.97
2017-09-13T17:22:18.994Z,1.53
2017-09-13T17:24:48.773Z,1.00
2017-09-13T17:27:24.511Z,0.83
2017-09-13T17:29:53.689Z,2.03
2017-09-13T17:32:22.064Z,1.13
2017-09-13T17:34:51.120Z,1.17
2017-09-13T17:37:19.449Z,1.90
2017-09-13T17:39:50.179Z,1.60
2017-09-13T17:42:19.495Z,1.60
2017-09-13T17:44:47.832Z,1.00
2017-09-13T17:47:16.144Z,1.73
2017-09-13T17:49:44.424Z,1.27
2017-09-13T17:52:12.774Z,1.50
2017-09-13T17:54:41.057Z,1.70
2017-09-13T17:57:15.555Z,1.40
2017-09-13T17:59:43.893Z,1.93
2017-09-13T18:02:12.188Z,1.70
2017-09-13T18:04:40.511Z,1.90
2017-09-13T18:07:08.821Z,1.53
2017-09-13T18:09:37.328Z,2.00
2017-09-13T18:12:06.072Z,1.70
2017-09-13T18:14:42.487Z,2.00
2017-09-13T18:17:10.813Z,2.10
2017-09-13T18:19:39.091Z,1.67
2017-09-13T18:22:08.659Z,2.30
2017-09-13T18:24:36.969Z,2.33
2017-09-13T18:27:06.196Z,1.77
2017-09-13T18:29:34.582Z,2.53
2017-09-13T18:32:09.150Z,2.10
2017-09-13T18:34:37.487Z,1.60
2017-09-13T18:37:11.108Z,2.07
2017-09-13T18:39:39.440Z,2.50
2017-09-13T18:42:07.763Z,2.30
2017-09-13T18:44:36.577Z,2.53
2017-09-13T18:47:06.640Z,2.93
2017-09-13T18:49:34.969Z,2.20
2017-09-13T18:52:03.276Z,2.27
2017-09-13T18:54:37.989Z,2.20
2017-09-13T18:57:06.294Z,2.60
2017-09-13T18:59:34.646Z,2.53
2017-09-13T19:02:02.976Z,1.83
2017-09-13T19:04:31.335Z,1.93
2017-09-13T19:07:00.438Z,1.83
2017-09-13T19:09:28.730Z,1.90
2017-09-13T19:11:57.149Z,1.90
2017-09-13T19:14:26.209Z,2.40
2017-09-13T19:16:54.553Z,2.00
2017-09-13T19:19:24.790Z,1.73
2017-09-13T19:21:53.864Z,2.00
2017-09-13T19:24:22.186Z,3.00
2017-09-13T19:26:50.505Z,2.40
2017-09-13T19:29:20.556Z,2.93
2017-09-13T19:31:49.719Z,2.00
2017-09-13T19:34:18.735Z,2.40
2017-09-13T19:36:48.340Z,2.53
2017-09-13T19:39:16.650Z,2.70
2017-09-13T19:41:49.309Z,2.43
2017-09-13T19:44:19.342Z,2.70
2017-09-13T19:46:49.436Z,1.50
2017-09-13T19:49:23.770Z,3.40
2017-09-13T19:51:53.641Z,2.60
2017-09-13T19:54:24.013Z,2.30
2017-09-13T19:56:55.380Z,2.03
2017-09-13T19:59:23.751Z,1.87
2017-09-13T20:01:55.242Z,2.20
2017-09-13T20:04:26.262Z,2.30
2017-09-13T20:06:55.522Z,2.63
2017-09-13T20:09:23.944Z,2.50
2017-09-13T20:11:53.092Z,2.37
2017-09-13T20:14:25.111Z,3.10
2017-09-13T20:17:06.902Z,2.83
2017-09-13T20:19:35.448Z,2.27
2017-09-13T20:22:05.725Z,3.00
2017-09-13T20:24:37.874Z,2.97
2017-09-13T20:27:10.452Z,3.10
2017-09-13T20:29:38.768Z,3.07
2017-09-13T20:32:07.071Z,2.83
2017-09-13T20:34:35.385Z,3.80
2017-09-13T20:37:03.683Z,1.97
2017-09-13T20:39:32.016Z,2.57
2017-09-13T20:42:00.290Z,3.30
2017-09-13T20:44:28.589Z,2.90
2017-09-13T20:46:56.931Z,2.70
2017-09-13T20:49:26.009Z,2.90
2017-09-13T20:51:54.319Z,3.70
2017-09-13T20:54:22.626Z,2.73
2017-09-13T20:56:50.983Z,3.50
2017-09-13T20:59:19.305Z,2.93
2017-09-13T21:01:47.661Z,3.40
2017-09-13T21:04:15.958Z,3.77
2017-09-13T21:06:44.255Z,3.77
2017-09-13T21:09:12.585Z,3.43
2017-09-13T21:11:41.638Z,3.93
2017-09-13T21:14:09.939Z,2.90
2017-09-13T21:16:38.255Z,2.87
2017-09-13T21:19:06.578Z,2.60
2017-09-13T21:21:34.919Z,3.10
2017-09-13T21:24:03.987Z,3.50
2017-09-13T21:26:32.289Z,3.10
2017-09-13T21:29:00.603Z,3.70
2017-09-13T21:31:28.911Z,3.33
2017-09-13T21:33:57.214Z,3.53
2017-09-13T21:36:25.522Z,3.07
2017-09-13T21:39:07.260Z,2.93
2017-09-13T21:41:36.473Z,2.67
2017-09-13T21:44:04.835Z,2.63
2017-09-13T21:46:33.160Z,2.63
2017-09-13T21:49:01.468Z,2.80
2017-09-13T21:51:29.787Z,3.00
2017-09-13T21:53:58.088Z,1.90
2017-09-13T21:56:26.434Z,2.60
2017-09-13T21:58:54.744Z,2.63
2017-09-13T22:01:23.152Z,2.97
2017-09-13T22:03:52.110Z,2.40
2017-09-13T22:06:20.443Z,2.20
2017-09-13T22:08:49.526Z,2.97
2017-09-13T22:11:17.809Z,2.90
2017-09-13T22:13:49.405Z,2.70
2017-09-13T22:16:17.785Z,2.63
2017-09-13T22:18:46.076Z,2.17
2017-09-13T22:21:14.367Z,2.03
2017-09-13T22:23:42.723Z,2.10
2017-09-13T22:26:11.059Z,2.10
2017-09-13T22:28:39.415Z,1.60
2017-09-13T22:31:08.475Z,2.27
2017-09-13T22:33:40.823Z,2.17
2017-09-13T22:36:09.895Z,1.40
2017-09-13T22:38:38.214Z,2.30
2017-09-13T22:41:06.588Z,2.03
2017-09-13T22:43:35.954Z,2.00
2017-09-13T22:46:04.279Z,2.17
2017-09-13T22:48:33.339Z,1.63
2017-09-13T22:51:01.646Z,1.90
2017-09-13T22:53:29.988Z,2.30
2017-09-13T22:55:58.269Z,1.87
2017-09-13T22:58:26.590Z,2.13
2017-09-13T23:00:54.871Z,2.20
2017-09-13T23:03:24.284Z,2.00
2017-09-13T23:05:52.647Z,2.00
2017-09-13T23:08:23.370Z,2.00
2017-09-13T23:10:52.448Z,1.90
2017-09-13T23:13:20.817Z,1.70
2017-09-13T23:15:49.092Z,2.40
2017-09-13T23:18:17.415Z,1.70
2017-09-13T23:20:45.783Z,2.07
2017-09-13T23:23:14.126Z,1.90
2017-09-13T23:25:42.440Z,1.40
2017-09-13T23:28:11.511Z,1.70
2017-09-13T23:30:39.821Z,1.73
2017-09-13T23:33:08.143Z,1.77
2017-09-13T23:35:37.237Z,1.90
2017-09-13T23:38:05.547Z,2.90
2017-09-13T23:40:33.876Z,1.90
2017-09-13T23:43:02.261Z,1.63
2017-09-13T23:45:30.544Z,1.43
2017-09-13T23:48:04.687Z,1.70
2017-09-13T23:50:33.077Z,1.10
2017-09-13T23:53:01.363Z,1.23
2017-09-13T23:55:29.685Z,1.13
2017-09-13T23:57:57.967Z,1.43
